createdAt,value
2023-04-15T00:01:19.489Z,4.67
2023-04-15T00:03:21.856Z,4.33
2023-04-15T00:05:23.660Z,7.60
2023-04-15T00:07:25.370Z,4.60
2023-04-15T00:09:27.101Z,6.93
2023-04-15T00:11:29.480Z,5.77
2023-04-15T00:13:31.646Z,5.10
2023-04-15T00:15:33.712Z,6.43
2023-04-15T00:17:36.100Z,4.10
2023-04-15T00:19:38.302Z,3.60
2023-04-15T00:21:40.090Z,4.40
2023-04-15T00:23:41.766Z,4.90
2023-04-15T00:25:43.628Z,3.30
2023-04-15T00:27:45.291Z,5.67
2023-04-15T00:29:46.995Z,3.90
2023-04-15T00:31:48.788Z,5.50
2023-04-15T00:33:50.443Z,4.20
2023-04-15T00:35:52.271Z,8.00
2023-04-15T00:37:54.068Z,6.40
2023-04-15T00:39:55.822Z,6.77
2023-04-15T00:41:58.084Z,5.47
2023-04-15T00:44:00.677Z,5.70
2023-04-15T00:46:05.008Z,4.43
2023-04-15T00:48:07.150Z,4.77
2023-04-15T00:50:09.968Z,8.20
2023-04-15T00:52:11.887Z,8.63
2023-04-15T00:54:14.112Z,9.83
2023-04-15T00:56:16.067Z,4.00
2023-04-15T00:58:18.431Z,5.20
2023-04-15T01:00:20.856Z,7.10
2023-04-15T01:02:23.386Z,5.20
2023-04-15T01:04:25.582Z,4.80
2023-04-15T01:06:28.152Z,5.73
2023-04-15T01:08:30.488Z,4.80
2023-04-15T01:10:33.341Z,5.60
2023-04-15T01:12:35.899Z,6.17
2023-04-15T01:14:37.566Z,7.53
2023-04-15T01:16:39.842Z,8.40
2023-04-15T01:18:41.815Z,4.23
2023-04-15T01:20:43.473Z,4.03
2023-04-15T01:22:45.345Z,5.83
2023-04-15T01:24:57.651Z,6.13
2023-04-15T01:26:59.365Z,5.67
2023-04-15T01:29:01.439Z,10.00
2023-04-15T01:31:14.891Z,5.37
2023-04-15T01:33:16.939Z,6.67
2023-04-15T01:35:18.896Z,4.63
2023-04-15T01:37:20.787Z,6.17
2023-04-15T01:39:22.749Z,5.33
2023-04-15T01:41:28.342Z,7.60
2023-04-15T01:43:30.185Z,4.87
2023-04-15T01:45:31.874Z,4.60
2023-04-15T01:47:33.700Z,6.23
2023-04-15T01:49:36.060Z,4.53
2023-04-15T01:51:37.881Z,7.27
2023-04-15T01:53:39.627Z,4.10
2023-04-15T01:55:41.831Z,5.90
2023-04-15T01:57:43.478Z,3.37
2023-04-15T01:59:45.123Z,3.83
2023-04-15T02:01:47.292Z,5.27
2023-04-15T02:03:49.138Z,8.87
2023-04-15T02:05:51.377Z,7.50
2023-04-15T02:07:53.718Z,5.90
2023-04-15T02:09:55.361Z,4.60
2023-04-15T02:11:57.485Z,9.00
2023-04-15T02:13:59.097Z,13.60
2023-04-15T02:16:01.747Z,5.07
2023-04-15T02:18:04.109Z,13.00
2023-04-15T02:20:06.438Z,3.90
2023-04-15T02:22:09.270Z,5.20
2023-04-15T02:24:12.388Z,5.43
2023-04-15T02:26:14.676Z,8.30
2023-04-15T02:28:16.396Z,12.63
2023-04-15T02:30:18.537Z,4.47
2023-04-15T02:32:22.098Z,6.93
2023-04-15T02:34:23.779Z,6.23
2023-04-15T02:36:27.074Z,7.87
2023-04-15T02:38:28.765Z,5.43
2023-04-15T02:40:30.505Z,6.73
2023-04-15T02:42:32.550Z,7.30
2023-04-15T02:44:36.337Z,9.40
2023-04-15T02:46:37.976Z,5.47
2023-04-15T02:48:39.744Z,5.67
2023-04-15T02:50:41.521Z,7.30
2023-04-15T02:52:44.638Z,6.13
2023-04-15T02:54:46.465Z,8.13
2023-04-15T02:56:48.318Z,6.60
2023-04-15T02:58:50.770Z,5.03
2023-04-15T03:00:52.469Z,10.93
2023-04-15T03:02:59.650Z,4.73
2023-04-15T03:05:01.681Z,7.30
2023-04-15T03:07:03.364Z,9.17
2023-04-15T03:09:05.479Z,5.40
2023-04-15T03:11:08.413Z,5.00
2023-04-15T03:13:10.202Z,6.30
2023-04-15T03:15:12.097Z,6.47
2023-04-15T03:17:13.753Z,7.20
2023-04-15T03:19:15.512Z,6.03
2023-04-15T03:21:17.244Z,7.87
2023-04-15T03:23:18.887Z,8.27
2023-04-15T03:25:20.579Z,4.23
2023-04-15T03:27:22.374Z,4.93
2023-04-15T03:29:24.319Z,7.83
2023-04-15T03:31:26.087Z,6.53
2023-04-15T03:33:27.768Z,7.87
2023-04-15T03:35:29.759Z,9.07
2023-04-15T03:37:31.518Z,6.03
2023-04-15T03:39:33.354Z,6.03
2023-04-15T03:41:35.019Z,6.60
2023-04-15T03:43:37.156Z,8.57
2023-04-15T03:45:38.845Z,8.33
2023-04-15T03:47:40.796Z,3.80
2023-04-15T03:49:42.503Z,5.73
2023-04-15T03:51:44.180Z,8.30
2023-04-15T03:53:46.277Z,4.67
2023-04-15T03:55:48.077Z,9.40
2023-04-15T03:57:49.723Z,6.80
2023-04-15T03:59:51.570Z,5.23
2023-04-15T04:01:53.421Z,10.80
2023-04-15T04:03:55.429Z,5.40
2023-04-15T04:05:57.370Z,6.80
2023-04-15T04:07:59.048Z,5.83
2023-04-15T04:10:00.763Z,4.70
2023-04-15T04:12:02.666Z,6.10
2023-04-15T04:14:04.456Z,8.73
2023-04-15T04:16:06.631Z,7.17
2023-04-15T04:18:08.323Z,4.77
2023-04-15T04:20:10.404Z,4.93
2023-04-15T04:22:12.191Z,8.17
2023-04-15T04:24:13.850Z,4.60
2023-04-15T04:26:15.585Z,5.67
2023-04-15T04:28:17.291Z,4.27
2023-04-15T04:30:19.021Z,3.60
2023-04-15T04:32:21.018Z,7.33
2023-04-15T04:34:22.729Z,14.57
2023-04-15T04:36:24.572Z,9.27
2023-04-15T04:38:26.363Z,4.30
2023-04-15T04:40:28.035Z,5.10
2023-04-15T04:42:30.142Z,9.00
2023-04-15T04:44:31.764Z,6.80
2023-04-15T04:46:33.456Z,7.10
2023-04-15T04:48:35.093Z,10.10
2023-04-15T04:50:37.022Z,5.87
2023-04-15T04:52:39.084Z,5.67
2023-04-15T04:54:41.018Z,8.73
2023-04-15T04:56:42.692Z,6.60
2023-04-15T04:58:44.559Z,13.00
2023-04-15T05:00:46.649Z,7.03
2023-04-15T05:02:48.680Z,8.23
2023-04-15T05:04:54.340Z,7.00
2023-04-15T05:06:56.395Z,8.43
2023-04-15T05:08:58.048Z,6.73
2023-04-15T05:10:59.834Z,7.13
2023-04-15T05:13:01.617Z,6.00
2023-04-15T05:15:03.697Z,6.43
2023-04-15T05:17:05.572Z,8.00
2023-04-15T05:19:07.837Z,4.53
2023-04-15T05:21:09.615Z,8.87
2023-04-15T05:23:11.281Z,7.00
2023-04-15T05:25:13.060Z,11.33
2023-04-15T05:27:14.747Z,7.87
2023-04-15T05:29:16.735Z,7.07
2023-04-15T05:31:18.468Z,6.50
2023-04-15T05:33:20.188Z,6.33
2023-04-15T05:35:22.234Z,9.40
2023-04-15T05:37:23.911Z,5.27
2023-04-15T05:39:25.513Z,6.77
2023-04-15T05:41:27.182Z,7.27
2023-04-15T05:43:28.933Z,9.40
2023-04-15T05:45:30.630Z,6.53
2023-04-15T05:47:32.371Z,6.17
2023-04-15T05:49:34.083Z,5.43
2023-04-15T05:51:36.111Z,7.60
2023-04-15T05:53:38.023Z,12.40
2023-04-15T05:55:39.687Z,6.97
2023-04-15T05:57:41.477Z,9.33
2023-04-15T05:59:43.238Z,5.43
2023-04-15T06:01:45.308Z,9.80
2023-04-15T06:03:47.177Z,5.33
2023-04-15T06:05:49.234Z,9.03
2023-04-15T06:07:51.348Z,6.33
2023-04-15T06:09:53.302Z,9.23
2023-04-15T06:11:56.193Z,9.30
2023-04-15T06:13:57.917Z,4.33
2023-04-15T06:15:59.877Z,7.20
2023-04-15T06:18:01.629Z,3.53
2023-04-15T06:20:03.945Z,4.83
2023-04-15T06:22:07.167Z,10.27
2023-04-15T06:24:08.887Z,7.60
2023-04-15T06:26:11.386Z,22.10
2023-04-15T06:28:13.338Z,8.60
2023-04-15T06:30:15.191Z,6.70
2023-04-15T06:32:16.868Z,4.33
2023-04-15T06:34:18.510Z,8.50
2023-04-15T06:36:20.292Z,10.23
2023-04-15T06:38:21.932Z,7.30
2023-04-15T06:40:23.658Z,6.53
2023-04-15T06:42:25.639Z,10.23
2023-04-15T06:44:27.305Z,5.20
2023-04-15T06:46:28.996Z,7.70
2023-04-15T06:48:30.718Z,7.47
2023-04-15T06:50:32.728Z,5.70
2023-04-15T06:52:35.825Z,6.63
2023-04-15T06:54:37.591Z,7.03
2023-04-15T06:56:39.590Z,6.00
2023-04-15T06:58:41.333Z,6.03
2023-04-15T07:00:43.048Z,5.70
2023-04-15T07:02:45.179Z,7.10
2023-04-15T07:04:47.012Z,8.40
2023-04-15T07:06:48.725Z,9.13
2023-04-15T07:08:50.413Z,6.10
2023-04-15T07:10:52.379Z,4.87
2023-04-15T07:12:54.065Z,8.10
2023-04-15T07:14:55.996Z,6.33
2023-04-15T07:16:57.732Z,6.13
2023-04-15T07:18:59.614Z,10.33
2023-04-15T07:21:01.578Z,4.30
2023-04-15T07:23:03.647Z,11.30
2023-04-15T07:25:06.000Z,8.50
2023-04-15T07:27:08.422Z,7.53
2023-04-15T07:29:10.194Z,4.80
2023-04-15T07:31:12.086Z,14.27
2023-04-15T07:33:13.998Z,9.53
2023-04-15T07:35:15.744Z,14.77
2023-04-15T07:37:17.521Z,7.67
2023-04-15T07:39:19.421Z,8.20
2023-04-15T07:41:21.768Z,7.93
2023-04-15T07:43:23.546Z,6.50
2023-04-15T07:45:25.255Z,6.57
2023-04-15T07:47:27.189Z,5.70
2023-04-15T07:49:28.857Z,8.97
2023-04-15T07:51:30.674Z,5.87
2023-04-15T07:53:33.186Z,8.40
2023-04-15T07:55:34.944Z,10.10
2023-04-15T07:57:37.117Z,7.50
2023-04-15T07:59:38.920Z,6.93
2023-04-15T08:01:40.663Z,8.37
2023-04-15T08:03:43.097Z,9.07
2023-04-15T08:05:45.551Z,7.00
2023-04-15T08:07:47.307Z,14.03
2023-04-15T08:09:48.958Z,11.57
2023-04-15T08:11:53.615Z,12.70
2023-04-15T08:13:55.436Z,10.83
2023-04-15T08:16:25.559Z,8.30
2023-04-15T08:18:27.420Z,7.13
2023-04-15T08:20:29.134Z,5.70
2023-04-15T08:22:30.840Z,9.67
2023-04-15T08:24:32.650Z,6.40
2023-04-15T08:26:34.284Z,8.67
2023-04-15T08:28:38.953Z,8.40
2023-04-15T08:30:40.589Z,6.73
2023-04-15T08:32:49.307Z,4.87
2023-04-15T08:34:51.032Z,6.70
2023-04-15T08:36:52.700Z,6.43
2023-04-15T08:38:54.362Z,8.77
2023-04-15T08:40:58.305Z,10.90
2023-04-15T08:43:02.881Z,7.87
2023-04-15T08:45:05.761Z,7.80
2023-04-15T08:47:08.891Z,8.93
2023-04-15T08:49:15.514Z,10.53
2023-04-15T08:51:18.091Z,7.60
2023-04-15T08:53:19.899Z,6.30
2023-04-15T08:55:21.951Z,7.43
2023-04-15T08:57:27.518Z,8.67
2023-04-15T08:59:30.837Z,7.20
2023-04-15T09:01:33.260Z,7.27
2023-04-15T09:03:35.753Z,6.10
2023-04-15T09:05:38.214Z,6.60
2023-04-15T09:07:39.912Z,8.47
2023-04-15T09:09:42.201Z,8.27
2023-04-15T09:11:44.208Z,12.07
2023-04-15T09:13:46.595Z,12.13
2023-04-15T09:15:48.598Z,6.63
2023-04-15T09:17:50.715Z,6.30
2023-04-15T09:20:13.504Z,8.77
2023-04-15T09:22:15.652Z,7.63
2023-04-15T09:24:17.577Z,8.97
2023-04-15T09:26:19.414Z,9.93
2023-04-15T09:28:26.441Z,9.93
2023-04-15T09:30:29.108Z,5.73
2023-04-15T09:32:30.886Z,9.60
2023-04-15T09:34:37.207Z,11.50
2023-04-15T09:36:54.301Z,12.00
2023-04-15T09:39:00.572Z,5.57
2023-04-15T09:41:02.593Z,9.60
2023-04-15T09:43:06.111Z,6.07
2023-04-15T09:45:13.930Z,5.90
2023-04-15T09:47:28.444Z,7.57
2023-04-15T09:49:30.349Z,7.30
2023-04-15T09:51:35.777Z,5.57
2023-04-15T09:53:38.316Z,5.57
2023-04-15T09:55:40.074Z,5.60
2023-04-15T09:57:42.338Z,10.80
2023-04-15T09:59:44.003Z,5.80
2023-04-15T10:01:46.409Z,5.43
2023-04-15T10:03:48.950Z,7.90
2023-04-15T10:05:53.299Z,10.60
2023-04-15T10:07:55.168Z,7.47
2023-04-15T10:09:57.926Z,8.17
2023-04-15T10:12:01.041Z,10.57
2023-04-15T10:14:03.588Z,8.20
2023-04-15T10:16:27.642Z,7.73
2023-04-15T10:18:32.325Z,10.90
2023-04-15T10:20:34.847Z,6.67
2023-04-15T10:22:37.656Z,7.13
2023-04-15T10:24:40.160Z,11.13
2023-04-15T10:26:42.610Z,8.73
2023-04-15T10:28:45.095Z,7.47
2023-04-15T10:30:48.107Z,9.07
2023-04-15T10:32:50.732Z,5.70
2023-04-15T10:34:54.559Z,6.60
2023-04-15T10:36:58.183Z,8.67
2023-04-15T10:38:59.831Z,8.27
2023-04-15T10:41:21.828Z,7.83
2023-04-15T10:43:27.361Z,6.83
2023-04-15T10:45:39.248Z,6.87
2023-04-15T10:47:43.283Z,6.77
2023-04-15T10:49:46.942Z,7.20
2023-04-15T10:51:52.914Z,9.63
2023-04-15T10:54:01.498Z,7.77
2023-04-15T10:56:05.433Z,8.13
2023-04-15T10:58:10.162Z,6.30
2023-04-15T11:00:14.513Z,7.23
2023-04-15T11:02:16.548Z,8.57
2023-04-15T11:04:54.338Z,12.40
2023-04-15T11:07:06.471Z,7.70
2023-04-15T11:09:09.658Z,7.33
2023-04-15T11:11:11.340Z,10.07
2023-04-15T11:13:17.849Z,7.60
2023-04-15T11:15:37.741Z,9.57
2023-04-15T11:17:39.471Z,9.00
2023-04-15T11:19:41.345Z,6.47
2023-04-15T11:21:43.147Z,7.87
2023-04-15T11:23:47.351Z,9.47
2023-04-15T11:25:49.240Z,7.80
2023-04-15T11:27:51.890Z,6.83
2023-04-15T11:29:53.583Z,7.47
2023-04-15T11:32:07.521Z,5.60
2023-04-15T11:34:09.259Z,17.23
2023-04-15T11:36:10.916Z,8.87
2023-04-15T11:38:14.228Z,7.80
2023-04-15T11:40:18.076Z,8.47
2023-04-15T11:42:19.877Z,7.73
2023-04-15T11:44:21.729Z,8.03
2023-04-15T11:46:30.982Z,6.90
2023-04-15T11:48:34.952Z,9.40
2023-04-15T11:50:38.238Z,8.50
2023-04-15T11:52:39.932Z,7.33
2023-04-15T11:54:41.603Z,11.30
2023-04-15T11:56:51.385Z,8.50
2023-04-15T11:58:59.242Z,7.27
2023-04-15T12:01:01.572Z,8.10
2023-04-15T12:03:40.177Z,8.30
2023-04-15T12:06:06.078Z,11.00
2023-04-15T12:08:07.762Z,12.17
2023-04-15T12:10:09.673Z,7.60
2023-04-15T12:12:12.449Z,8.13
2023-04-15T12:14:32.896Z,7.97
2023-04-15T12:16:37.357Z,10.87
2023-04-15T12:18:52.311Z,13.10
2023-04-15T12:20:54.657Z,10.23
2023-04-15T12:23:06.024Z,8.27
2023-04-15T12:25:07.838Z,8.33
2023-04-15T12:27:12.091Z,7.87
2023-04-15T12:29:16.358Z,9.40
2023-04-15T12:31:18.073Z,12.73
2023-04-15T12:33:19.738Z,9.70
2023-04-15T12:35:22.943Z,7.63
2023-04-15T12:37:24.622Z,7.23
2023-04-15T12:39:30.467Z,7.10
2023-04-15T12:41:33.764Z,7.37
2023-04-15T12:43:35.498Z,8.30
2023-04-15T12:45:37.410Z,7.10
2023-04-15T12:47:39.194Z,7.53
2023-04-15T12:49:41.310Z,5.30
2023-04-15T12:51:43.294Z,4.60
2023-04-15T12:53:45.110Z,8.07
2023-04-15T12:55:46.839Z,3.60
2023-04-15T12:57:48.749Z,10.87
2023-04-15T12:59:50.677Z,6.10
2023-04-15T13:01:53.493Z,7.10
2023-04-15T13:03:56.175Z,5.03
2023-04-15T13:05:57.956Z,3.87
2023-04-15T13:07:59.782Z,3.50
2023-04-15T13:10:01.472Z,6.83
2023-04-15T13:12:05.318Z,4.23
2023-04-15T13:14:09.164Z,5.10
2023-04-15T13:16:10.824Z,5.50
2023-04-15T13:18:13.118Z,3.00
2023-04-15T13:20:15.493Z,5.37
2023-04-15T13:22:17.184Z,5.03
2023-04-15T13:24:18.828Z,8.47
2023-04-15T13:26:20.544Z,2.90
2023-04-15T13:28:22.398Z,4.77
2023-04-15T13:30:24.155Z,4.33
2023-04-15T13:32:26.438Z,5.93
2023-04-15T13:34:28.258Z,3.07
2023-04-15T13:36:30.111Z,4.00
2023-04-15T13:38:31.859Z,3.47
2023-04-15T13:40:33.518Z,4.40
2023-04-15T13:42:35.318Z,4.33
2023-04-15T13:44:37.051Z,3.23
2023-04-15T13:46:40.327Z,5.33
2023-04-15T13:48:42.197Z,4.20
2023-04-15T13:50:45.541Z,4.07
2023-04-15T13:52:47.304Z,3.50
2023-04-15T13:54:49.371Z,4.67
2023-04-15T13:57:11.078Z,6.00
2023-04-15T13:59:13.572Z,2.10
2023-04-15T14:01:15.367Z,2.80
2023-04-15T14:03:17.219Z,2.37
2023-04-15T14:05:19.076Z,3.17
2023-04-15T14:07:20.850Z,5.33
2023-04-15T14:09:26.279Z,3.93
2023-04-15T14:11:28.299Z,3.70
2023-04-15T14:13:30.040Z,4.00
2023-04-15T14:15:32.033Z,2.50
2023-04-15T14:17:33.952Z,3.03
2023-04-15T14:19:35.672Z,4.33
2023-04-15T14:21:37.495Z,3.10
2023-04-15T14:23:39.255Z,3.23
2023-04-15T14:25:41.098Z,3.90
2023-04-15T14:27:42.741Z,3.23
2023-04-15T14:29:44.384Z,3.63
2023-04-15T14:32:07.440Z,2.60
2023-04-15T14:34:07.912Z,3.10
2023-04-15T14:36:10.216Z,2.77
2023-04-15T14:38:12.011Z,4.17
2023-04-15T14:40:13.679Z,3.50
2023-04-15T14:42:15.645Z,6.37
2023-04-15T14:44:17.400Z,7.57
2023-04-15T14:46:19.157Z,6.93
2023-04-15T14:48:21.125Z,9.60
2023-04-15T14:50:22.945Z,9.50
2023-04-15T14:52:24.609Z,4.30
2023-04-15T14:54:26.348Z,3.47
2023-04-15T14:56:28.098Z,4.97
2023-04-15T14:58:29.816Z,3.53
2023-04-15T15:00:31.604Z,4.57
2023-04-15T15:02:39.224Z,7.83
2023-04-15T15:04:41.910Z,5.67
2023-04-15T15:06:43.720Z,5.20
2023-04-15T15:08:46.479Z,4.97
2023-04-15T15:10:49.694Z,5.70
2023-04-15T15:12:51.560Z,4.93
2023-04-15T15:14:55.148Z,5.90
2023-04-15T15:16:56.815Z,4.80
2023-04-15T15:18:58.480Z,7.70
2023-04-15T15:21:00.173Z,13.90
2023-04-15T15:23:01.924Z,4.80
2023-04-15T15:25:03.988Z,10.00
2023-04-15T15:27:05.795Z,3.43
2023-04-15T15:29:07.566Z,8.33
2023-04-15T15:31:09.426Z,3.70
2023-04-15T15:33:11.181Z,3.70
2023-04-15T15:35:12.865Z,5.50
2023-04-15T15:37:14.584Z,4.83
2023-04-15T15:39:16.434Z,4.00
2023-04-15T15:41:18.122Z,4.27
2023-04-15T15:43:20.058Z,3.37
2023-04-15T15:45:21.744Z,8.13
2023-04-15T15:47:24.063Z,5.70
2023-04-15T15:49:28.078Z,8.53
2023-04-15T15:51:30.056Z,5.00
2023-04-15T15:53:31.700Z,4.20
2023-04-15T15:55:33.692Z,4.33
2023-04-15T15:57:35.392Z,7.10
2023-04-15T15:59:41.378Z,5.20
2023-04-15T16:01:44.222Z,4.33
2023-04-15T16:03:46.113Z,5.07
2023-04-15T16:05:48.044Z,3.60
2023-04-15T16:07:49.723Z,5.70
2023-04-15T16:09:51.544Z,4.10
2023-04-15T16:11:53.253Z,7.87
2023-04-15T16:13:55.038Z,8.17
2023-04-15T16:15:56.745Z,9.17
2023-04-15T16:17:58.467Z,10.63
2023-04-15T16:20:01.252Z,8.10
2023-04-15T16:22:03.307Z,9.83
2023-04-15T16:24:05.372Z,7.07
2023-04-15T16:26:07.005Z,6.90
2023-04-15T16:28:22.598Z,7.13
2023-04-15T16:30:28.861Z,6.20
2023-04-15T16:32:30.941Z,6.90
2023-04-15T16:34:32.658Z,7.00
2023-04-15T16:36:35.333Z,6.17
2023-04-15T16:38:37.073Z,5.77
2023-04-15T16:40:38.804Z,6.80
2023-04-15T16:42:43.450Z,5.90
2023-04-15T16:44:45.502Z,6.90
2023-04-15T16:46:47.192Z,9.80
2023-04-15T16:48:49.042Z,7.80
2023-04-15T16:50:50.747Z,5.73
2023-04-15T16:52:52.902Z,8.43
2023-04-15T16:54:54.656Z,6.73
2023-04-15T16:56:58.640Z,6.73
2023-04-15T16:59:00.254Z,8.93
2023-04-15T17:01:02.090Z,7.23
2023-04-15T17:03:04.826Z,6.83
2023-04-15T17:05:07.279Z,8.07
2023-04-15T17:07:10.616Z,7.80
2023-04-15T17:09:12.291Z,7.37
2023-04-15T17:11:15.430Z,7.07
2023-04-15T17:13:17.182Z,8.40
2023-04-15T17:15:19.900Z,8.37
2023-04-15T17:17:22.340Z,10.07
2023-04-15T17:19:24.166Z,11.07
2023-04-15T17:21:26.314Z,8.17
2023-04-15T17:23:27.929Z,8.20
2023-04-15T17:25:30.746Z,6.73
2023-04-15T17:27:32.569Z,6.33
2023-04-15T17:29:34.245Z,6.47
2023-04-15T17:31:36.093Z,6.63
2023-04-15T17:33:56.163Z,6.93
2023-04-15T17:36:00.553Z,6.43
2023-04-15T17:38:02.279Z,6.50
2023-04-15T17:40:06.621Z,5.37
2023-04-15T17:42:13.652Z,5.70
2023-04-15T17:44:15.397Z,9.43
2023-04-15T17:46:17.188Z,5.13
2023-04-15T17:48:18.911Z,4.20
2023-04-15T17:50:20.696Z,4.50
2023-04-15T17:52:22.334Z,3.93
2023-04-15T17:54:24.105Z,4.37
2023-04-15T17:56:28.456Z,3.53
2023-04-15T17:58:31.632Z,2.97
2023-04-15T18:00:33.344Z,3.43
2023-04-15T18:02:37.233Z,2.60
2023-04-15T18:04:39.956Z,3.60
2023-04-15T18:06:42.004Z,2.20
2023-04-15T18:08:43.693Z,2.20
2023-04-15T18:10:45.425Z,2.73
2023-04-15T18:12:47.703Z,2.53
2023-04-15T18:14:49.441Z,2.30
2023-04-15T18:16:52.159Z,2.20
2023-04-15T18:18:54.513Z,2.43
2023-04-15T18:20:56.230Z,3.10
2023-04-15T18:22:58.064Z,5.43
2023-04-15T18:25:03.940Z,2.67
2023-04-15T18:27:05.730Z,3.13
2023-04-15T18:29:07.481Z,3.00
2023-04-15T18:31:09.233Z,3.27
2023-04-15T18:33:10.891Z,3.80
2023-04-15T18:35:12.536Z,3.67
2023-04-15T18:37:14.418Z,4.93
2023-04-15T18:39:17.041Z,5.37
2023-04-15T18:41:18.692Z,5.37
2023-04-15T18:43:20.822Z,5.37
2023-04-15T18:45:22.505Z,5.83
2023-04-15T18:47:27.090Z,4.60
2023-04-15T18:49:28.949Z,6.83
2023-04-15T18:51:30.818Z,4.73
2023-04-15T18:53:32.694Z,5.43
2023-04-15T18:55:35.788Z,4.53
2023-04-15T18:57:42.525Z,5.70
2023-04-15T18:59:46.545Z,6.63
2023-04-15T19:01:48.848Z,6.40
2023-04-15T19:03:50.803Z,7.20
2023-04-15T19:05:52.573Z,7.50
2023-04-15T19:07:55.898Z,6.00
2023-04-15T19:09:58.386Z,7.10
2023-04-15T19:12:00.106Z,6.10
2023-04-15T19:14:01.800Z,8.20
2023-04-15T19:16:03.581Z,7.00
2023-04-15T19:18:10.380Z,6.97
2023-04-15T19:20:12.102Z,7.77
2023-04-15T19:22:13.944Z,8.47
2023-04-15T19:24:19.312Z,13.63
2023-04-15T19:26:21.143Z,12.40
2023-04-15T19:28:22.833Z,9.33
2023-04-15T19:30:24.624Z,25.90
2023-04-15T19:32:26.376Z,10.67
2023-04-15T19:34:28.026Z,19.93
2023-04-15T19:36:29.866Z,23.77
2023-04-15T19:38:32.179Z,47.93
2023-04-15T19:40:33.836Z,131.57
2023-04-15T19:42:35.507Z,20.30
2023-04-15T19:44:37.291Z,12.03
2023-04-15T19:46:40.716Z,13.23
2023-04-15T19:48:42.560Z,12.53
2023-04-15T19:50:44.583Z,12.93
2023-04-15T19:52:46.725Z,21.67
2023-04-15T19:54:48.435Z,12.90
2023-04-15T19:56:50.094Z,24.40
2023-04-15T19:58:52.798Z,20.07
2023-04-15T20:00:54.702Z,14.50
2023-04-15T20:02:56.842Z,73.27
2023-04-15T20:04:58.589Z,70.57
2023-04-15T20:07:00.513Z,17.37
2023-04-15T20:09:02.244Z,53.80
2023-04-15T20:11:05.498Z,18.20
2023-04-15T20:13:07.436Z,32.93
2023-04-15T20:15:09.581Z,25.83
2023-04-15T20:17:11.269Z,59.40
2023-04-15T20:19:15.720Z,40.03
2023-04-15T20:21:17.391Z,51.23
2023-04-15T20:23:19.263Z,23.07
2023-04-15T20:25:21.064Z,26.63
2023-04-15T20:27:22.812Z,24.53
2023-04-15T20:29:24.516Z,32.20
2023-04-15T20:31:26.383Z,32.07
2023-04-15T20:33:28.302Z,29.17
2023-04-15T20:35:30.859Z,60.17
2023-04-15T20:37:33.529Z,93.73
2023-04-15T20:39:35.516Z,24.87
2023-04-15T20:41:37.199Z,24.87
2023-04-15T20:43:38.835Z,31.23
2023-04-15T20:45:40.711Z,34.97
2023-04-15T20:47:42.513Z,105.97
2023-04-15T20:49:44.207Z,62.47
2023-04-15T20:51:46.000Z,604.47
2023-04-15T20:53:47.667Z,530.80
2023-04-15T20:55:49.607Z,339.77
2023-04-15T20:57:51.385Z,28.77
2023-04-15T20:59:53.085Z,42.17
2023-04-15T21:01:56.832Z,25.40
2023-04-15T21:03:59.186Z,38.53
2023-04-15T21:06:01.054Z,28.40
2023-04-15T21:08:02.765Z,780.03
2023-04-15T21:10:04.657Z,651.33
2023-04-15T21:12:06.410Z,984.23
2023-04-15T21:14:08.576Z,922.73
2023-04-15T21:16:10.302Z,932.17
2023-04-15T21:18:12.062Z,1212.37
2023-04-15T21:20:13.782Z,991.63
2023-04-15T21:22:15.461Z,865.40
2023-04-15T21:24:17.183Z,781.07
2023-04-15T21:26:19.221Z,818.17
2023-04-15T21:28:20.969Z,866.40
2023-04-15T21:30:23.915Z,766.90
2023-04-15T21:32:25.607Z,955.83
2023-04-15T21:34:27.295Z,539.27
2023-04-15T21:36:28.973Z,571.70
2023-04-15T21:38:30.791Z,384.43
2023-04-15T21:40:32.520Z,387.03
2023-04-15T21:42:34.256Z,189.20
2023-04-15T21:44:35.956Z,107.83
2023-04-15T21:46:37.759Z,216.67
2023-04-15T21:48:41.426Z,36.70
2023-04-15T21:50:43.166Z,52.07
2023-04-15T21:52:44.913Z,438.10
2023-04-15T21:54:46.537Z,121.83
2023-04-15T21:56:49.674Z,346.93
2023-04-15T21:58:57.050Z,440.13
2023-04-15T22:01:00.324Z,826.83
2023-04-15T22:03:02.319Z,699.53
2023-04-15T22:05:04.950Z,794.53
2023-04-15T22:07:06.656Z,989.33
2023-04-15T22:09:08.323Z,697.60
2023-04-15T22:11:10.772Z,692.83
2023-04-15T22:13:12.945Z,1062.60
2023-04-15T22:15:16.686Z,1152.57
2023-04-15T22:17:18.434Z,819.73
2023-04-15T22:19:20.317Z,1165.23
2023-04-15T22:21:22.163Z,1148.07
2023-04-15T22:23:23.785Z,1015.53
2023-04-15T22:25:25.663Z,973.60
2023-04-15T22:27:27.374Z,963.27
2023-04-15T22:29:30.099Z,766.80
2023-04-15T22:31:31.912Z,820.73
2023-04-15T22:33:34.696Z,674.97
2023-04-15T22:35:37.514Z,567.93
2023-04-15T22:37:41.120Z,883.60
2023-04-15T22:39:45.288Z,905.50
2023-04-15T22:41:47.921Z,896.73
2023-04-15T22:43:49.708Z,799.83
2023-04-15T22:45:53.850Z,845.33
2023-04-15T22:47:55.837Z,853.83
2023-04-15T22:49:57.621Z,859.67
2023-04-15T22:51:59.273Z,984.97
2023-04-15T22:54:00.978Z,1008.27
2023-04-15T22:56:02.767Z,1371.67
2023-04-15T22:58:04.593Z,1152.90
2023-04-15T23:00:07.734Z,909.27
2023-04-15T23:02:09.630Z,849.43
2023-04-15T23:04:27.305Z,925.53
2023-04-15T23:06:29.875Z,988.57
2023-04-15T23:08:31.790Z,1403.10
2023-04-15T23:10:33.517Z,935.83
2023-04-15T23:12:35.478Z,1173.43
2023-04-15T23:14:37.130Z,937.97
2023-04-15T23:16:38.909Z,701.30
2023-04-15T23:18:40.619Z,801.03
2023-04-15T23:20:42.277Z,1067.63
2023-04-15T23:22:43.942Z,595.90
2023-04-15T23:24:46.185Z,986.90
2023-04-15T23:26:47.961Z,1172.83
2023-04-15T23:28:49.627Z,910.77
2023-04-15T23:30:51.309Z,1243.33
2023-04-15T23:32:53.106Z,827.00
2023-04-15T23:34:54.844Z,705.90
2023-04-15T23:36:56.513Z,866.07
2023-04-15T23:38:58.571Z,1177.93
2023-04-15T23:41:00.403Z,905.67
2023-04-15T23:43:01.998Z,933.00
2023-04-15T23:45:03.858Z,1114.43
2023-04-15T23:47:05.783Z,711.70
2023-04-15T23:49:07.764Z,524.00
2023-04-15T23:51:09.880Z,766.53
2023-04-15T23:53:11.528Z,495.57
2023-04-15T23:55:13.427Z,730.80
2023-04-15T23:57:15.109Z,987.27
2023-04-15T23:59:16.914Z,945.60
